sensor_id;sensor_type;location;lat;lon;timestamp;pressure;altitude;pressure_sealevel;temperature;humidity
74680;BME280;63211;48.548;2.704;2023-11-21T00:02:02;100497.75;;;19.49;55.24
74680;BME280;63211;48.548;2.704;2023-11-21T00:04:29;100505.09;;;19.48;54.87
74680;BME280;63211;48.548;2.704;2023-11-21T00:06:57;100500.94;;;19.46;54.67
74680;BME280;63211;48.548;2.704;2023-11-21T00:09:24;100498.22;;;19.46;54.75
74680;BME280;63211;48.548;2.704;2023-11-21T00:11:50;100501.66;;;19.41;54.77
74680;BME280;63211;48.548;2.704;2023-11-21T00:14:17;100504.75;;;19.45;54.97
74680;BME280;63211;48.548;2.704;2023-11-21T00:16:43;100507.22;;;19.46;54.87
74680;BME280;63211;48.548;2.704;2023-11-21T00:19:10;100512.47;;;19.48;54.77
74680;BME280;63211;48.548;2.704;2023-11-21T00:21:37;100507.22;;;19.46;55.18
74680;BME280;63211;48.548;2.704;2023-11-21T00:24:06;100504.50;;;19.46;55.22
74680;BME280;63211;48.548;2.704;2023-11-21T00:26:32;100491.78;;;19.40;55.17
74680;BME280;63211;48.548;2.704;2023-11-21T00:29:02;100515.88;;;19.43;55.44
74680;BME280;63211;48.548;2.704;2023-11-21T00:31:28;100513.41;;;19.42;55.26
74680;BME280;63211;48.548;2.704;2023-11-21T00:33:56;100519.09;;;19.40;55.23
74680;BME280;63211;48.548;2.704;2023-11-21T00:36:22;100517.44;;;19.39;55.19
74680;BME280;63211;48.548;2.704;2023-11-21T00:38:49;100521.81;;;19.40;55.30
74680;BME280;63211;48.548;2.704;2023-11-21T00:41:16;100521.00;;;19.40;55.11
74680;BME280;63211;48.548;2.704;2023-11-21T00:43:43;100520.53;;;19.43;54.87
74680;BME280;63211;48.548;2.704;2023-11-21T00:46:10;100520.75;;;19.41;55.05
74680;BME280;63211;48.548;2.704;2023-11-21T00:48:36;100524.56;;;19.40;55.32
74680;BME280;63211;48.548;2.704;2023-11-21T00:51:03;100521.81;;;19.40;55.35
74680;BME280;63211;48.548;2.704;2023-11-21T00:53:31;100521.47;;;19.37;55.31
74680;BME280;63211;48.548;2.704;2023-11-21T00:55:57;100519.56;;;19.37;55.25
74680;BME280;63211;48.548;2.704;2023-11-21T00:58:25;100521.09;;;19.33;55.52
74680;BME280;63211;48.548;2.704;2023-11-21T01:00:52;100521.34;;;19.32;55.48
74680;BME280;63211;48.548;2.704;2023-11-21T01:03:19;100522.41;;;19.31;55.52
74680;BME280;63211;48.548;2.704;2023-11-21T01:05:45;100512.81;;;19.28;55.02
74680;BME280;63211;48.548;2.704;2023-11-21T01:08:11;100518.63;;;19.32;54.99
74680;BME280;63211;48.548;2.704;2023-11-21T01:10:38;100515.63;;;19.33;55.35
74680;BME280;63211;48.548;2.704;2023-11-21T01:13:04;100520.16;;;19.39;55.43
74680;BME280;63211;48.548;2.704;2023-11-21T01:15:34;100522.66;;;19.41;55.15
74680;BME280;63211;48.548;2.704;2023-11-21T01:18:00;100502.47;;;19.30;55.25
74680;BME280;63211;48.548;2.704;2023-11-21T01:20:27;100520.06;;;19.46;55.35
74680;BME280;63211;48.548;2.704;2023-11-21T01:22:53;100522.31;;;19.49;55.39
74680;BME280;63211;48.548;2.704;2023-11-21T01:25:20;100521.47;;;19.48;55.39
74680;BME280;63211;48.548;2.704;2023-11-21T01:27:47;100531.34;;;19.49;55.23
74680;BME280;63211;48.548;2.704;2023-11-21T01:30:13;100525.28;;;19.47;55.49
74680;BME280;63211;48.548;2.704;2023-11-21T01:32:43;100532.19;;;19.50;55.35
74680;BME280;63211;48.548;2.704;2023-11-21T01:35:10;100525.03;;;19.49;55.76
74680;BME280;63211;48.548;2.704;2023-11-21T01:37:36;100529.06;;;19.46;55.36
74680;BME280;63211;48.548;2.704;2023-11-21T01:40:04;100531.13;;;19.51;55.44
74680;BME280;63211;48.548;2.704;2023-11-21T01:42:34;100533.88;;;19.51;55.76
74680;BME280;63211;48.548;2.704;2023-11-21T01:45:01;100531.56;;;19.48;55.70
74680;BME280;63211;48.548;2.704;2023-11-21T01:47:30;100536.78;;;19.49;55.78
74680;BME280;63211;48.548;2.704;2023-11-21T01:49:58;100537.66;;;19.50;55.32
74680;BME280;63211;48.548;2.704;2023-11-21T01:52:25;100530.97;;;19.46;55.25
74680;BME280;63211;48.548;2.704;2023-11-21T01:54:52;100537.88;;;19.48;55.61
74680;BME280;63211;48.548;2.704;2023-11-21T01:57:19;100537.25;;;19.46;55.20
74680;BME280;63211;48.548;2.704;2023-11-21T01:59:48;100547.59;;;19.44;55.32
74680;BME280;63211;48.548;2.704;2023-11-21T02:02:15;100536.66;;;19.44;55.58
74680;BME280;63211;48.548;2.704;2023-11-21T02:04:42;100539.41;;;19.44;55.05
74680;BME280;63211;48.548;2.704;2023-11-21T02:07:10;100536.06;;;19.42;55.40
74680;BME280;63211;48.548;2.704;2023-11-21T02:09:37;100536.06;;;19.42;55.23
74680;BME280;63211;48.548;2.704;2023-11-21T02:12:05;100545.09;;;19.43;55.21
74680;BME280;63211;48.548;2.704;2023-11-21T02:14:32;100536.31;;;19.41;55.37
74680;BME280;63211;48.548;2.704;2023-11-21T02:16:59;100541.53;;;19.42;55.32
74680;BME280;63211;48.548;2.704;2023-11-21T02:19:26;100541.75;;;19.41;55.39
74680;BME280;63211;48.548;2.704;2023-11-21T02:21:56;100544.72;;;19.39;55.76
74680;BME280;63211;48.548;2.704;2023-11-21T02:24:26;100546.38;;;19.40;55.41
74680;BME280;63211;48.548;2.704;2023-11-21T02:26:52;100544.72;;;19.39;55.47
74680;BME280;63211;48.548;2.704;2023-11-21T02:29:19;100545.19;;;19.36;55.49
74680;BME280;63211;48.548;2.704;2023-11-21T02:31:47;100539.72;;;19.36;55.73
74680;BME280;63211;48.548;2.704;2023-11-21T02:34:14;100546.03;;;19.37;55.69
74680;BME280;63211;48.548;2.704;2023-11-21T02:36:41;100548.16;;;19.35;55.37
74680;BME280;63211;48.548;2.704;2023-11-21T02:39:08;100543.75;;;19.34;55.41
74680;BME280;63211;48.548;2.704;2023-11-21T02:41:37;100545.44;;;19.35;55.50
74680;BME280;63211;48.548;2.704;2023-11-21T02:44:04;100549.00;;;19.35;55.36
74680;BME280;63211;48.548;2.704;2023-11-21T02:46:32;100550.06;;;19.34;55.84
74680;BME280;63211;48.548;2.704;2023-11-21T02:48:59;100556.34;;;19.35;55.75
74680;BME280;63211;48.548;2.704;2023-11-21T02:51:25;100551.13;;;19.33;55.75
74680;BME280;63211;48.548;2.704;2023-11-21T02:53:52;100549.13;;;19.29;55.81
74680;BME280;63211;48.548;2.704;2023-11-21T02:56:18;100555.50;;;19.34;55.50
74680;BME280;63211;48.548;2.704;2023-11-21T02:58:46;100553.63;;;19.35;55.79
74680;BME280;63211;48.548;2.704;2023-11-21T03:01:13;100553.38;;;19.36;55.77
74680;BME280;63211;48.548;2.704;2023-11-21T03:03:39;100537.38;;;19.28;55.76
74680;BME280;63211;48.548;2.704;2023-11-21T03:06:07;100551.97;;;19.45;56.07
74680;BME280;63211;48.548;2.704;2023-11-21T03:08:33;100553.66;;;19.46;56.02
74680;BME280;63211;48.548;2.704;2023-11-21T03:11:00;100558.88;;;19.48;56.35
74680;BME280;63211;48.548;2.704;2023-11-21T03:13:28;100567.69;;;19.50;56.39
74680;BME280;63211;48.548;2.704;2023-11-21T03:15:56;100563.28;;;19.49;56.13
74680;BME280;63211;48.548;2.704;2023-11-21T03:18:22;100556.78;;;19.50;56.05
74680;BME280;63211;48.548;2.704;2023-11-21T03:20:49;100556.53;;;19.51;56.03
74680;BME280;63211;48.548;2.704;2023-11-21T03:23:15;100554.47;;;19.47;56.30
74680;BME280;63211;48.548;2.704;2023-11-21T03:25:42;100561.38;;;19.49;56.07
74680;BME280;63211;48.548;2.704;2023-11-21T03:28:08;100547.47;;;19.39;56.09
74680;BME280;63211;48.548;2.704;2023-11-21T03:30:35;100555.78;;;19.44;56.05
74680;BME280;63211;48.548;2.704;2023-11-21T03:33:03;100563.06;;;19.50;55.84
74680;BME280;63211;48.548;2.704;2023-11-21T03:35:29;100570.63;;;19.48;55.65
74680;BME280;63211;48.548;2.704;2023-11-21T03:37:56;100570.19;;;19.51;55.85
74680;BME280;63211;48.548;2.704;2023-11-21T03:40:23;100571.47;;;19.49;55.70
74680;BME280;63211;48.548;2.704;2023-11-21T03:42:49;100574.00;;;19.50;55.96
74680;BME280;63211;48.548;2.704;2023-11-21T03:45:16;100571.03;;;19.52;55.63
74680;BME280;63211;48.548;2.704;2023-11-21T03:47:43;100575.25;;;19.48;55.36
74680;BME280;63211;48.548;2.704;2023-11-21T03:50:10;100577.63;;;19.44;55.56
74680;BME280;63211;48.548;2.704;2023-11-21T03:52:37;100582.84;;;19.46;55.56
74680;BME280;63211;48.548;2.704;2023-11-21T03:55:04;100583.31;;;19.43;55.57
74680;BME280;63211;48.548;2.704;2023-11-21T03:57:31;100587.94;;;19.42;55.67
74680;BME280;63211;48.548;2.704;2023-11-21T03:59:57;100594.47;;;19.41;55.84
74680;BME280;63211;48.548;2.704;2023-11-21T04:02:24;100593.88;;;19.39;55.38
74680;BME280;63211;48.548;2.704;2023-11-21T04:04:52;100589.47;;;19.38;55.43
74680;BME280;63211;48.548;2.704;2023-11-21T04:07:20;100603.50;;;19.42;55.31
74680;BME280;63211;48.548;2.704;2023-11-21T04:09:47;100593.88;;;19.39;55.44
74680;BME280;63211;48.548;2.704;2023-11-21T04:12:13;100598.03;;;19.42;55.42
74680;BME280;63211;48.548;2.704;2023-11-21T04:14:40;100602.66;;;19.41;55.39
74680;BME280;63211;48.548;2.704;2023-11-21T04:17:06;100608.34;;;19.40;55.58
74680;BME280;63211;48.548;2.704;2023-11-21T04:19:33;100609.41;;;19.39;56.07
74680;BME280;63211;48.548;2.704;2023-11-21T04:21:59;100588.88;;;19.25;55.76
74680;BME280;63211;48.548;2.704;2023-11-21T04:24:27;100609.03;;;19.35;55.96
74680;BME280;63211;48.548;2.704;2023-11-21T04:26:54;100616.41;;;19.35;55.85
74680;BME280;63211;48.548;2.704;2023-11-21T04:29:20;100612.50;;;19.31;55.94
74680;BME280;63211;48.548;2.704;2023-11-21T04:31:48;100619.88;;;19.30;55.80
74680;BME280;63211;48.548;2.704;2023-11-21T04:34:15;100625.31;;;19.30;55.32
74680;BME280;63211;48.548;2.704;2023-11-21T04:36:41;100628.66;;;19.32;55.56
74680;BME280;63211;48.548;2.704;2023-11-21T04:39:08;100628.28;;;19.29;55.43
74680;BME280;63211;48.548;2.704;2023-11-21T04:41:36;100641.56;;;19.37;55.73
74680;BME280;63211;48.548;2.704;2023-11-21T04:44:05;100623.19;;;19.32;56.04
74680;BME280;63211;48.548;2.704;2023-11-21T04:46:31;100634.00;;;19.39;55.76
74680;BME280;63211;48.548;2.704;2023-11-21T04:48:58;100633.28;;;19.43;55.90
74680;BME280;63211;48.548;2.704;2023-11-21T04:51:25;100625.94;;;19.44;55.77
74680;BME280;63211;48.548;2.704;2023-11-21T04:53:51;100623.06;;;19.39;55.64
74680;BME280;63211;48.548;2.704;2023-11-21T04:56:18;100632.00;;;19.46;56.14
74680;BME280;63211;48.548;2.704;2023-11-21T04:58:46;100631.75;;;19.47;55.89
74680;BME280;63211;48.548;2.704;2023-11-21T05:01:12;100631.53;;;19.49;55.85
74680;BME280;63211;48.548;2.704;2023-11-21T05:03:39;100632.59;;;19.48;55.97
74680;BME280;63211;48.548;2.704;2023-11-21T05:06:06;100640.34;;;19.51;56.10
74680;BME280;63211;48.548;2.704;2023-11-21T05:08:32;100639.72;;;19.49;56.12
74680;BME280;63211;48.548;2.704;2023-11-21T05:10:59;100639.13;;;19.47;55.99
74680;BME280;63211;48.548;2.704;2023-11-21T05:13:26;100654.00;;;19.51;56.30
74680;BME280;63211;48.548;2.704;2023-11-21T05:15:54;100651.28;;;19.51;55.92
74680;BME280;63211;48.548;2.704;2023-11-21T05:18:20;100640.56;;;19.49;56.10
74680;BME280;63211;48.548;2.704;2023-11-21T05:20:46;100651.28;;;19.51;55.72
74680;BME280;63211;48.548;2.704;2023-11-21T05:23:13;100644.16;;;19.50;55.87
74680;BME280;63211;48.548;2.704;2023-11-21T05:25:40;100651.47;;;19.49;55.65
74680;BME280;63211;48.548;2.704;2023-11-21T05:28:07;100648.16;;;19.47;55.63
74680;BME280;63211;48.548;2.704;2023-11-21T05:30:34;100651.94;;;19.46;55.52
74680;BME280;63211;48.548;2.704;2023-11-21T05:33:01;100651.81;;;19.41;55.41
74680;BME280;63211;48.548;2.704;2023-11-21T05:35:28;100657.25;;;19.41;55.63
74680;BME280;63211;48.548;2.704;2023-11-21T05:37:55;100667.25;;;19.47;55.63
74680;BME280;63211;48.548;2.704;2023-11-21T05:40:21;100653.47;;;19.42;55.47
74680;BME280;63211;48.548;2.704;2023-11-21T05:42:48;100671.66;;;19.48;55.56
74680;BME280;63211;48.548;2.704;2023-11-21T05:45:16;100665.59;;;19.46;55.34
74680;BME280;63211;48.548;2.704;2023-11-21T05:47:45;100661.06;;;19.40;55.69
74680;BME280;63211;48.548;2.704;2023-11-21T05:50:14;100669.25;;;19.40;55.43
74680;BME280;63211;48.548;2.704;2023-11-21T05:52:42;100666.16;;;19.37;55.59
74680;BME280;63211;48.548;2.704;2023-11-21T05:55:09;100674.34;;;19.37;55.62
74680;BME280;63211;48.548;2.704;2023-11-21T05:57:37;100678.75;;;19.38;56.14
74680;BME280;63211;48.548;2.704;2023-11-21T06:00:05;100676.00;;;19.38;55.63
74680;BME280;63211;48.548;2.704;2023-11-21T06:02:37;100674.81;;;19.34;55.77
74680;BME280;63211;48.548;2.704;2023-11-21T06:05:04;100677.53;;;19.34;55.64
74680;BME280;63211;48.548;2.704;2023-11-21T06:07:33;100675.91;;;19.33;55.87
74680;BME280;63211;48.548;2.704;2023-11-21T06:10:00;100682.03;;;19.28;56.13
74680;BME280;63211;48.548;2.704;2023-11-21T06:12:28;100682.88;;;19.29;56.14
74680;BME280;63211;48.548;2.704;2023-11-21T06:14:54;100676.97;;;19.32;55.90
74680;BME280;63211;48.548;2.704;2023-11-21T06:17:21;100679.53;;;19.27;56.07
74680;BME280;63211;48.548;2.704;2023-11-21T06:19:49;100675.69;;;19.16;56.35
74680;BME280;63211;48.548;2.704;2023-11-21T06:22:18;100670.44;;;19.03;56.09
74680;BME280;63211;48.548;2.704;2023-11-21T06:24:46;100694.69;;;19.11;56.41
74680;BME280;63211;48.548;2.704;2023-11-21T06:27:12;100693.84;;;19.10;56.22
74680;BME280;63211;48.548;2.704;2023-11-21T06:29:39;100705.72;;;19.16;56.27
74680;BME280;63211;48.548;2.704;2023-11-21T06:32:07;100673.38;;;19.01;55.63
74680;BME280;63211;48.548;2.704;2023-11-21T06:34:34;100700.78;;;19.25;55.82
74680;BME280;63211;48.548;2.704;2023-11-21T06:37:00;100705.56;;;19.29;55.44
74680;BME280;63211;48.548;2.704;2023-11-21T06:39:27;100698.66;;;19.27;55.62
74680;BME280;63211;48.548;2.704;2023-11-21T06:41:55;100711.13;;;19.34;55.71
74680;BME280;63211;48.548;2.704;2023-11-21T06:44:21;100717.41;;;19.35;55.66
74680;BME280;63211;48.548;2.704;2023-11-21T06:46:48;100714.00;;;19.39;56.47
74680;BME280;63211;48.548;2.704;2023-11-21T06:49:15;100720.28;;;19.40;56.63
74680;BME280;63211;48.548;2.704;2023-11-21T06:51:41;100691.75;;;19.24;56.38
74680;BME280;63211;48.548;2.704;2023-11-21T06:54:08;100715.06;;;19.38;57.04
74680;BME280;63211;48.548;2.704;2023-11-21T06:56:35;100714.84;;;19.40;58.70
74680;BME280;63211;48.548;2.704;2023-11-21T06:59:02;100719.97;;;19.48;58.22
74680;BME280;63211;48.548;2.704;2023-11-21T07:01:31;100719.00;;;19.42;58.10
74680;BME280;63211;48.548;2.704;2023-11-21T07:03:59;100722.34;;;19.44;57.26
74680;BME280;63211;48.548;2.704;2023-11-21T07:06:26;100718.03;;;19.37;57.26
74680;BME280;63211;48.548;2.704;2023-11-21T07:08:52;100725.38;;;19.36;57.47
74680;BME280;63211;48.548;2.704;2023-11-21T07:11:19;100733.47;;;19.43;58.25
74680;BME280;63211;48.548;2.704;2023-11-21T07:13:46;100730.66;;;19.49;57.98
74680;BME280;63211;48.548;2.704;2023-11-21T07:16:14;100735.28;;;19.49;57.90
74680;BME280;63211;48.548;2.704;2023-11-21T07:18:40;100717.09;;;19.43;58.07
74680;BME280;63211;48.548;2.704;2023-11-21T07:21:07;100735.69;;;19.52;57.70
74680;BME280;63211;48.548;2.704;2023-11-21T07:23:34;100744.56;;;19.48;57.92
74680;BME280;63211;48.548;2.704;2023-11-21T07:26:01;100746.69;;;19.46;57.93
74680;BME280;63211;48.548;2.704;2023-11-21T07:28:28;100747.13;;;19.43;57.79
74680;BME280;63211;48.548;2.704;2023-11-21T07:30:55;100755.78;;;19.40;58.10
74680;BME280;63211;48.548;2.704;2023-11-21T07:33:23;100753.66;;;19.42;57.91
74680;BME280;63211;48.548;2.704;2023-11-21T07:35:49;100756.78;;;19.45;57.75
74680;BME280;63211;48.548;2.704;2023-11-21T07:38:16;100764.50;;;19.48;57.52
74680;BME280;63211;48.548;2.704;2023-11-21T07:40:43;100767.91;;;19.44;57.82
74680;BME280;63211;48.548;2.704;2023-11-21T07:43:09;100779.44;;;19.46;57.70
74680;BME280;63211;48.548;2.704;2023-11-21T07:45:36;100777.41;;;19.41;57.82
74680;BME280;63211;48.548;2.704;2023-11-21T07:48:03;100773.53;;;19.49;57.90
74680;BME280;63211;48.548;2.704;2023-11-21T07:50:31;100777.97;;;19.50;57.33
74680;BME280;63211;48.548;2.704;2023-11-21T07:52:58;100767.47;;;19.47;57.62
74680;BME280;63211;48.548;2.704;2023-11-21T07:55:25;100782.69;;;19.54;57.79
74680;BME280;63211;48.548;2.704;2023-11-21T07:57:51;100788.16;;;19.54;57.23
74680;BME280;63211;48.548;2.704;2023-11-21T08:00:19;100792.56;;;19.55;57.38
74680;BME280;63211;48.548;2.704;2023-11-21T08:02:46;100781.63;;;19.55;57.16
74680;BME280;63211;48.548;2.704;2023-11-21T08:05:13;100788.53;;;19.58;57.24
74680;BME280;63211;48.548;2.704;2023-11-21T08:07:42;100794.38;;;19.62;56.93
74680;BME280;63211;48.548;2.704;2023-11-21T08:10:09;100797.47;;;19.65;56.98
74680;BME280;63211;48.548;2.704;2023-11-21T08:12:36;100797.72;;;19.64;57.08
74680;BME280;63211;48.548;2.704;2023-11-21T08:15:04;100797.72;;;19.64;56.84
74680;BME280;63211;48.548;2.704;2023-11-21T08:17:31;100794.75;;;19.65;56.97
74680;BME280;63211;48.548;2.704;2023-11-21T08:19:58;100797.03;;;19.68;56.81
74680;BME280;63211;48.548;2.704;2023-11-21T08:22:24;100805.00;;;19.70;56.61
74680;BME280;63211;48.548;2.704;2023-11-21T08:24:52;100803.94;;;19.71;56.57
74680;BME280;63211;48.548;2.704;2023-11-21T08:27:21;100795.13;;;19.69;56.79
74680;BME280;63211;48.548;2.704;2023-11-21T08:29:47;100800.81;;;19.67;56.20
74680;BME280;63211;48.548;2.704;2023-11-21T08:32:14;100797.25;;;19.67;56.18
74680;BME280;63211;48.548;2.704;2023-11-21T08:34:40;100794.91;;;19.70;56.43
74680;BME280;63211;48.548;2.704;2023-11-21T08:37:08;100810.09;;;19.78;56.40
74680;BME280;63211;48.548;2.704;2023-11-21T08:39:36;100808.81;;;19.80;56.39
74680;BME280;63211;48.548;2.704;2023-11-21T08:42:04;100813.50;;;19.92;56.13
74680;BME280;63211;48.548;2.704;2023-11-21T08:44:31;100819.91;;;19.97;56.17
74680;BME280;63211;48.548;2.704;2023-11-21T08:46:58;100825.28;;;20.04;56.01
74680;BME280;63211;48.548;2.704;2023-11-21T08:49:24;100826.50;;;20.08;55.97
74680;BME280;63211;48.548;2.704;2023-11-21T08:51:53;100814.97;;;20.06;56.35
74680;BME280;63211;48.548;2.704;2023-11-21T08:54:20;100821.75;;;20.15;55.98
74680;BME280;63211;48.548;2.704;2023-11-21T08:56:47;100815.09;;;20.11;56.12
74680;BME280;63211;48.548;2.704;2023-11-21T08:59:15;100818.91;;;20.10;55.94
74680;BME280;63211;48.548;2.704;2023-11-21T09:01:41;100815.56;;;20.08;55.59
74680;BME280;63211;48.548;2.704;2023-11-21T09:04:08;100829.69;;;20.16;55.98
74680;BME280;63211;48.548;2.704;2023-11-21T09:06:34;100823.66;;;20.14;55.48
74680;BME280;63211;48.548;2.704;2023-11-21T09:09:01;100830.44;;;20.12;55.67
74680;BME280;63211;48.548;2.704;2023-11-21T09:11:30;100817.09;;;20.04;55.53
74680;BME280;63211;48.548;2.704;2023-11-21T09:13:59;100830.66;;;20.10;55.64
74680;BME280;63211;48.548;2.704;2023-11-21T09:16:27;100825.06;;;20.05;55.67
74680;BME280;63211;48.548;2.704;2023-11-21T09:18:53;100819.22;;;20.02;55.70
74680;BME280;63211;48.548;2.704;2023-11-21T09:21:20;100823.63;;;20.03;55.52
74680;BME280;63211;48.548;2.704;2023-11-21T09:23:47;100834.09;;;20.06;55.59
74680;BME280;63211;48.548;2.704;2023-11-21T09:26:14;100823.63;;;20.03;55.32
74680;BME280;63211;48.548;2.704;2023-11-21T09:28:41;100830.53;;;20.05;55.34
74680;BME280;63211;48.548;2.704;2023-11-21T09:31:13;100828.63;;;20.06;55.18
74680;BME280;63211;48.548;2.704;2023-11-21T09:33:42;100836.22;;;20.04;55.35
74680;BME280;63211;48.548;2.704;2023-11-21T09:36:11;100843.81;;;20.02;55.36
74680;BME280;63211;48.548;2.704;2023-11-21T09:38:38;100846.31;;;20.03;55.24
74680;BME280;63211;48.548;2.704;2023-11-21T09:41:13;100851.78;;;20.03;55.07
74680;BME280;63211;48.548;2.704;2023-11-21T09:43:44;100850.94;;;20.03;55.36
74680;BME280;63211;48.548;2.704;2023-11-21T09:46:12;100849.50;;;20.00;55.33
74680;BME280;63211;48.548;2.704;2023-11-21T09:48:47;100853.91;;;20.01;55.31
74680;BME280;63211;48.548;2.704;2023-11-21T09:51:18;100860.44;;;20.00;55.14
74680;BME280;63211;48.548;2.704;2023-11-21T09:53:48;100856.41;;;20.03;55.12
74680;BME280;63211;48.548;2.704;2023-11-21T09:56:17;100864.16;;;20.06;55.03
74680;BME280;63211;48.548;2.704;2023-11-21T09:58:51;100870.31;;;20.01;55.19
74680;BME280;63211;48.548;2.704;2023-11-21T10:01:18;100876.59;;;20.02;55.16
74680;BME280;63211;48.548;2.704;2023-11-21T10:03:47;100884.88;;;20.13;54.80
74680;BME280;63211;48.548;2.704;2023-11-21T10:06:14;100885.69;;;20.14;54.64
74680;BME280;63211;48.548;2.704;2023-11-21T10:08:41;100881.63;;;20.16;54.40
74680;BME280;63211;48.548;2.704;2023-11-21T10:11:08;100895.81;;;20.25;54.28
74680;BME280;63211;48.548;2.704;2023-11-21T10:13:38;100896.75;;;20.19;54.19
74680;BME280;63211;48.548;2.704;2023-11-21T10:16:07;100897.50;;;20.26;54.23
74680;BME280;63211;48.548;2.704;2023-11-21T10:18:37;100891.06;;;20.20;54.19
74680;BME280;63211;48.548;2.704;2023-11-21T10:21:07;100896.75;;;20.19;54.02
74680;BME280;63211;48.548;2.704;2023-11-21T10:23:34;100899.97;;;20.16;54.12
74680;BME280;63211;48.548;2.704;2023-11-21T10:26:01;100885.56;;;20.09;54.00
74680;BME280;63211;48.548;2.704;2023-11-21T10:28:27;100899.38;;;20.14;53.90
74680;BME280;63211;48.548;2.704;2023-11-21T10:30:54;100894.38;;;20.11;53.97
74680;BME280;63211;48.548;2.704;2023-11-21T10:33:27;100881.69;;;19.98;53.76
74680;BME280;63211;48.548;2.704;2023-11-21T10:35:54;100890.41;;;20.07;53.87
74680;BME280;63211;48.548;2.704;2023-11-21T10:38:22;100893.16;;;20.07;53.63
74680;BME280;63211;48.548;2.704;2023-11-21T10:40:49;100896.56;;;20.02;53.58
74680;BME280;63211;48.548;2.704;2023-11-21T10:43:17;100893.63;;;20.04;53.54
74680;BME280;63211;48.548;2.704;2023-11-21T10:45:44;100891.94;;;20.03;53.29
74680;BME280;63211;48.548;2.704;2023-11-21T10:48:13;100898.00;;;20.05;53.53
74680;BME280;63211;48.548;2.704;2023-11-21T10:50:40;100903.09;;;20.01;53.29
74680;BME280;63211;48.548;2.704;2023-11-21T10:53:07;100908.56;;;20.01;53.63
74680;BME280;63211;48.548;2.704;2023-11-21T10:55:35;100901.44;;;20.00;53.56
74680;BME280;63211;48.548;2.704;2023-11-21T10:58:03;100902.50;;;19.99;53.52
74680;BME280;63211;48.548;2.704;2023-11-21T11:00:32;100905.13;;;19.94;53.47
74680;BME280;63211;48.548;2.704;2023-11-21T11:02:59;100900.50;;;19.95;53.36
74680;BME280;63211;48.548;2.704;2023-11-21T11:05:27;100906.19;;;19.93;53.80
74680;BME280;63211;48.548;2.704;2023-11-21T11:07:58;100910.44;;;19.89;53.80
74680;BME280;63211;48.548;2.704;2023-11-21T11:10:28;100908.31;;;19.91;53.85
74680;BME280;63211;48.548;2.704;2023-11-21T11:12:57;100913.78;;;19.91;53.68
74680;BME280;63211;48.548;2.704;2023-11-21T11:15:25;100915.66;;;19.90;53.28
74680;BME280;63211;48.548;2.704;2023-11-21T11:17:52;100923.19;;;19.95;53.56
74680;BME280;63211;48.548;2.704;2023-11-21T11:20:23;100917.13;;;19.93;53.88
74680;BME280;63211;48.548;2.704;2023-11-21T11:22:59;100915.91;;;19.89;53.79
74680;BME280;63211;48.548;2.704;2023-11-21T11:25:41;100916.50;;;19.91;54.17
74680;BME280;63211;48.548;2.704;2023-11-21T11:28:20;100912.09;;;19.90;53.92
74680;BME280;63211;48.548;2.704;2023-11-21T11:30:57;100923.25;;;19.88;54.17
74680;BME280;63211;48.548;2.704;2023-11-21T11:33:36;100917.72;;;19.95;53.61
74680;BME280;63211;48.548;2.704;2023-11-21T11:36:06;100904.41;;;19.99;53.50
74680;BME280;63211;48.548;2.704;2023-11-21T11:38:36;100906.28;;;19.98;53.50
74680;BME280;63211;48.548;2.704;2023-11-21T11:41:04;100912.13;;;20.02;53.46
74680;BME280;63211;48.548;2.704;2023-11-21T11:43:33;100906.53;;;19.97;53.38
74680;BME280;63211;48.548;2.704;2023-11-21T11:46:09;100886.91;;;19.88;53.32
74680;BME280;63211;48.548;2.704;2023-11-21T11:48:38;100914.50;;;19.98;53.58
74680;BME280;63211;48.548;2.704;2023-11-21T11:51:09;100912.81;;;19.97;53.69
74680;BME280;63211;48.548;2.704;2023-11-21T11:53:38;100910.94;;;19.98;53.42
74680;BME280;63211;48.548;2.704;2023-11-21T11:56:23;100912.81;;;19.97;53.58
74680;BME280;63211;48.548;2.704;2023-11-21T11:58:54;100895.03;;;19.76;53.39
74680;BME280;63211;48.548;2.704;2023-11-21T12:01:22;100916.28;;;19.93;53.47
74680;BME280;63211;48.548;2.704;2023-11-21T12:04:23;100918.91;;;19.99;53.65
74680;BME280;63211;48.548;2.704;2023-11-21T12:06:56;100913.88;;;19.96;53.56
74680;BME280;63211;48.548;2.704;2023-11-21T12:09:25;100916.28;;;19.93;54.02
74680;BME280;63211;48.548;2.704;2023-11-21T12:11:53;100916.06;;;19.94;54.14
74680;BME280;63211;48.548;2.704;2023-11-21T12:14:23;100918.78;;;19.94;54.48
74680;BME280;63211;48.548;2.704;2023-11-21T12:16:50;100896.25;;;19.80;54.66
74680;BME280;63211;48.548;2.704;2023-11-21T12:19:17;100923.75;;;19.97;54.71
74680;BME280;63211;48.548;2.704;2023-11-21T12:21:44;100912.25;;;19.95;54.80
74680;BME280;63211;48.548;2.704;2023-11-21T12:24:11;100918.44;;;20.02;54.51
74680;BME280;63211;48.548;2.704;2023-11-21T12:26:39;100928.31;;;20.03;54.67
74680;BME280;63211;48.548;2.704;2023-11-21T12:29:05;100913.41;;;19.87;54.57
74680;BME280;63211;48.548;2.704;2023-11-21T12:31:34;100927.56;;;19.96;54.75
74680;BME280;63211;48.548;2.704;2023-11-21T12:34:01;100929.72;;;19.94;54.88
74680;BME280;63211;48.548;2.704;2023-11-21T12:36:29;100933.84;;;19.97;54.63
74680;BME280;63211;48.548;2.704;2023-11-21T12:38:55;100939.31;;;19.97;54.78
74680;BME280;63211;48.548;2.704;2023-11-21T12:41:22;100942.53;;;19.94;54.78
74680;BME280;63211;48.548;2.704;2023-11-21T12:43:49;100924.31;;;19.87;54.72
74680;BME280;63211;48.548;2.704;2023-11-21T12:46:15;100947.78;;;19.95;54.79
74680;BME280;63211;48.548;2.704;2023-11-21T12:48:44;100946.09;;;19.94;54.83
74680;BME280;63211;48.548;2.704;2023-11-21T12:51:12;100941.09;;;19.91;54.69
74680;BME280;63211;48.548;2.704;2023-11-21T12:53:39;100931.06;;;19.85;54.98